createdAt,value
2023-01-05T00:01:55.703Z,8.17
2023-01-05T00:04:24.687Z,7.53
2023-01-05T00:06:53.505Z,8.00
2023-01-05T00:09:26.021Z,7.97
2023-01-05T00:12:12.483Z,8.47
2023-01-05T00:14:59.511Z,8.37
2023-01-05T00:17:47.141Z,7.97
2023-01-05T00:20:34.855Z,8.70
2023-01-05T00:23:04.698Z,9.27
2023-01-05T00:25:39.647Z,7.77
2023-01-05T00:28:08.722Z,8.50
2023-01-05T00:30:41.746Z,8.83
2023-01-05T00:33:13.715Z,8.37
2023-01-05T00:35:42.021Z,8.77
2023-01-05T00:38:11.650Z,8.13
2023-01-05T00:40:40.539Z,7.97
2023-01-05T00:43:11.318Z,7.40
2023-01-05T00:45:40.772Z,7.77
2023-01-05T00:48:09.675Z,7.73
2023-01-05T00:50:39.671Z,6.67
2023-01-05T00:53:07.988Z,7.60
2023-01-05T00:55:37.522Z,7.37
2023-01-05T00:58:06.667Z,6.80
2023-01-05T01:00:35.008Z,6.67
2023-01-05T01:03:03.410Z,6.90
2023-01-05T01:05:31.597Z,7.13
2023-01-05T01:08:04.244Z,6.87
2023-01-05T01:10:32.503Z,6.30
2023-01-05T01:13:01.690Z,6.67
2023-01-05T01:15:30.676Z,6.50
2023-01-05T01:17:59.726Z,6.60
2023-01-05T01:20:32.020Z,6.77
2023-01-05T01:23:03.216Z,6.77
2023-01-05T01:25:32.559Z,6.63
2023-01-05T01:28:01.692Z,6.17
2023-01-05T01:30:30.764Z,6.77
2023-01-05T01:33:01.355Z,6.43
2023-01-05T01:35:29.487Z,5.97
2023-01-05T01:37:58.690Z,5.53
2023-01-05T01:40:29.146Z,6.10
2023-01-05T01:42:58.417Z,6.13
2023-01-05T01:45:27.884Z,4.50
2023-01-05T01:47:59.718Z,5.17
2023-01-05T01:50:36.340Z,5.37
2023-01-05T01:53:09.706Z,5.10
2023-01-05T01:55:45.300Z,5.07
2023-01-05T01:58:17.528Z,5.63
2023-01-05T02:00:52.370Z,4.47
2023-01-05T02:03:20.593Z,5.30
2023-01-05T02:05:50.686Z,4.73
2023-01-05T02:08:25.583Z,4.97
2023-01-05T02:11:06.522Z,5.80
2023-01-05T02:13:48.688Z,5.30
2023-01-05T02:16:29.123Z,5.87
2023-01-05T02:19:23.317Z,5.60
2023-01-05T02:22:02.420Z,5.90
2023-01-05T02:25:05.761Z,5.60
2023-01-05T02:27:49.789Z,6.23
2023-01-05T02:30:59.725Z,4.67
2023-01-05T02:33:54.772Z,5.70
2023-01-05T02:36:29.816Z,5.73
2023-01-05T02:39:09.787Z,6.00
2023-01-05T02:41:42.878Z,5.60
2023-01-05T02:44:16.834Z,6.40
2023-01-05T02:46:46.501Z,5.63
2023-01-05T02:49:18.711Z,5.33
2023-01-05T02:51:52.587Z,6.30
2023-01-05T02:54:25.743Z,5.53
2023-01-05T02:56:59.728Z,5.67
2023-01-05T02:59:33.122Z,5.70
2023-01-05T03:02:07.717Z,5.07
2023-01-05T03:04:41.520Z,5.53
2023-01-05T03:07:13.840Z,5.77
2023-01-05T03:09:48.373Z,5.30
2023-01-05T03:12:41.535Z,5.63
2023-01-05T03:15:20.939Z,6.20
2023-01-05T03:17:55.847Z,6.17
2023-01-05T03:20:26.471Z,6.83
2023-01-05T03:23:19.581Z,6.63
2023-01-05T03:26:07.131Z,6.53
2023-01-05T03:28:59.343Z,6.73
2023-01-05T03:31:55.512Z,6.10
2023-01-05T03:34:48.924Z,4.90
2023-01-05T03:37:29.590Z,5.40
2023-01-05T03:40:02.573Z,5.10
2023-01-05T03:42:37.500Z,5.70
2023-01-05T03:45:07.192Z,5.47
2023-01-05T03:47:35.581Z,5.20
2023-01-05T03:50:05.539Z,5.33
2023-01-05T03:52:35.612Z,5.53
2023-01-05T03:55:06.800Z,5.07
2023-01-05T03:57:35.768Z,5.40
2023-01-05T04:00:05.736Z,4.90
2023-01-05T04:02:46.555Z,5.17
2023-01-05T04:05:21.869Z,4.97
2023-01-05T04:07:51.815Z,4.10
2023-01-05T04:10:21.263Z,3.63
2023-01-05T04:12:53.453Z,3.67
2023-01-05T04:15:21.679Z,3.40
2023-01-05T04:17:50.743Z,3.30
2023-01-05T04:20:19.605Z,2.60
2023-01-05T04:22:49.215Z,3.00
2023-01-05T04:25:20.631Z,2.87
2023-01-05T04:27:49.460Z,2.70
2023-01-05T04:30:18.910Z,2.90
2023-01-05T04:32:48.399Z,2.90
2023-01-05T04:35:17.616Z,2.93
2023-01-05T04:37:52.967Z,2.60
2023-01-05T04:40:21.489Z,3.30
2023-01-05T04:42:56.432Z,3.57
2023-01-05T04:45:26.892Z,2.80
2023-01-05T04:47:55.796Z,3.30
2023-01-05T04:50:25.476Z,3.40
2023-01-05T04:53:00.472Z,4.40
2023-01-05T04:55:31.768Z,3.63
2023-01-05T04:58:00.870Z,3.53
2023-01-05T05:00:31.713Z,3.37
2023-01-05T05:03:00.964Z,3.57
2023-01-05T05:05:29.520Z,3.17
2023-01-05T05:08:00.835Z,3.20
2023-01-05T05:10:30.761Z,3.00
2023-01-05T05:13:01.510Z,3.50
2023-01-05T05:15:31.760Z,3.30
2023-01-05T05:18:08.702Z,4.10
2023-01-05T05:20:38.646Z,3.90
2023-01-05T05:23:08.771Z,3.33
2023-01-05T05:25:37.525Z,3.00
2023-01-05T05:28:06.130Z,3.20
2023-01-05T05:30:34.326Z,3.27
2023-01-05T05:33:02.598Z,3.10
2023-01-05T05:35:30.703Z,3.20
2023-01-05T05:38:00.108Z,3.03
2023-01-05T05:40:29.750Z,3.23
2023-01-05T05:42:57.911Z,3.20
2023-01-05T05:45:26.032Z,3.00
2023-01-05T05:47:54.183Z,2.60
2023-01-05T05:50:25.517Z,2.30
2023-01-05T05:52:54.827Z,2.00
2023-01-05T05:55:23.047Z,2.37
2023-01-05T05:57:52.549Z,2.00
2023-01-05T06:00:21.020Z,2.23
2023-01-05T06:02:52.458Z,2.00
2023-01-05T06:05:20.749Z,1.90
2023-01-05T06:07:48.873Z,1.70
2023-01-05T06:10:17.293Z,1.40
2023-01-05T06:12:45.627Z,1.10
2023-01-05T06:15:15.424Z,1.40
2023-01-05T06:17:43.888Z,1.50
2023-01-05T06:20:12.096Z,1.20
2023-01-05T06:22:42.524Z,1.40
2023-01-05T06:25:11.810Z,1.20
2023-01-05T06:27:40.084Z,1.80
2023-01-05T06:30:10.688Z,1.30
2023-01-05T06:32:40.275Z,1.37
2023-01-05T06:35:11.823Z,1.10
2023-01-05T06:37:40.093Z,1.23
2023-01-05T06:40:11.524Z,1.30
2023-01-05T06:42:43.864Z,1.07
2023-01-05T06:45:14.651Z,1.27
2023-01-05T06:47:44.344Z,1.20
2023-01-05T06:50:12.800Z,1.13
2023-01-05T06:52:41.821Z,1.40
2023-01-05T06:55:13.660Z,1.40
2023-01-05T06:57:42.017Z,1.60
2023-01-05T07:00:12.633Z,1.40
2023-01-05T07:02:41.058Z,1.63
2023-01-05T07:05:13.690Z,1.33
2023-01-05T07:07:41.880Z,1.30
2023-01-05T07:10:10.859Z,1.70
2023-01-05T07:12:39.108Z,1.50
2023-01-05T07:15:08.586Z,1.43
2023-01-05T07:17:37.615Z,1.50
2023-01-05T07:20:08.964Z,1.60
2023-01-05T07:22:38.473Z,1.87
2023-01-05T07:25:07.294Z,1.57
2023-01-05T07:27:35.779Z,2.17
2023-01-05T07:30:04.101Z,2.00
2023-01-05T07:32:35.929Z,3.07
2023-01-05T07:35:04.286Z,3.77
2023-01-05T07:37:32.848Z,2.63
2023-01-05T07:40:02.409Z,3.80
2023-01-05T07:42:31.758Z,3.00
2023-01-05T07:45:05.020Z,2.63
2023-01-05T07:47:33.220Z,3.07
2023-01-05T07:50:01.968Z,2.80
2023-01-05T07:52:31.966Z,2.80
2023-01-05T07:55:00.162Z,2.90
2023-01-05T07:57:29.806Z,3.07
2023-01-05T07:59:58.958Z,3.33
2023-01-05T08:02:32.236Z,2.77
2023-01-05T08:05:06.867Z,3.03
2023-01-05T08:07:36.401Z,2.90
2023-01-05T08:10:22.735Z,3.00
2023-01-05T08:13:12.719Z,2.87
2023-01-05T08:15:43.690Z,2.73
2023-01-05T08:18:15.806Z,2.70
2023-01-05T08:20:44.349Z,3.30
2023-01-05T08:23:12.473Z,3.07
2023-01-05T08:25:55.186Z,2.50
2023-01-05T08:28:31.265Z,3.10
2023-01-05T08:31:03.595Z,3.73
2023-01-05T08:33:31.837Z,2.43
2023-01-05T08:36:00.365Z,2.57
2023-01-05T08:38:28.860Z,2.90
2023-01-05T08:41:00.553Z,2.50
2023-01-05T08:43:31.915Z,2.50
2023-01-05T08:46:00.162Z,2.73
2023-01-05T08:48:28.622Z,2.53
2023-01-05T08:50:56.995Z,2.63
2023-01-05T08:53:25.175Z,2.77
2023-01-05T08:55:56.355Z,2.30
2023-01-05T08:58:24.886Z,2.67
2023-01-05T09:00:54.572Z,3.10
2023-01-05T09:03:23.051Z,2.10
2023-01-05T09:05:54.480Z,2.30
2023-01-05T09:08:26.984Z,2.00
2023-01-05T09:10:55.345Z,2.10
2023-01-05T09:13:23.756Z,2.10
2023-01-05T09:15:52.921Z,1.53
2023-01-05T09:18:22.447Z,1.30
2023-01-05T09:20:56.521Z,1.30
2023-01-05T09:23:24.842Z,1.37
2023-01-05T09:25:52.968Z,1.60
2023-01-05T09:28:21.866Z,1.40
2023-01-05T09:30:51.096Z,1.40
2023-01-05T09:33:21.767Z,1.20
2023-01-05T09:35:56.509Z,1.40
2023-01-05T09:38:29.749Z,1.20
2023-01-05T09:41:03.814Z,1.43
2023-01-05T09:43:37.912Z,1.43
2023-01-05T09:46:10.596Z,1.40
2023-01-05T09:48:45.583Z,1.50
2023-01-05T09:51:15.371Z,1.20
2023-01-05T09:53:44.312Z,1.30
2023-01-05T09:56:59.039Z,1.40
2023-01-05T09:59:16.667Z,1.30
2023-01-05T10:01:46.905Z,1.30
2023-01-05T10:04:18.487Z,1.57
2023-01-05T10:09:43.929Z,1.60
2023-01-05T10:12:38.153Z,1.50
2023-01-05T10:15:10.791Z,1.37
2023-01-05T10:17:43.690Z,1.40
2023-01-05T10:20:18.164Z,1.60
2023-01-05T10:22:59.041Z,1.60
2023-01-05T10:25:34.900Z,1.53
2023-01-05T10:28:20.516Z,1.43
2023-01-05T10:30:56.925Z,1.70
2023-01-05T10:33:48.627Z,1.53
2023-01-05T10:40:04.409Z,1.60
2023-01-05T10:42:45.427Z,2.00
2023-01-05T10:45:15.798Z,2.10
2023-01-05T10:47:46.209Z,1.90
2023-01-05T10:50:29.774Z,1.90
2023-01-05T10:52:59.930Z,2.10
2023-01-05T10:55:31.344Z,2.43
2023-01-05T10:57:59.818Z,2.40
2023-01-05T11:00:42.960Z,2.50
2023-01-05T11:03:15.831Z,2.83
2023-01-05T11:05:48.397Z,2.90
2023-01-05T11:08:19.981Z,2.60
2023-01-05T11:10:56.705Z,2.90
2023-01-05T11:13:32.139Z,3.20
2023-01-05T11:16:09.264Z,3.10
2023-01-05T11:18:50.473Z,3.30
2023-01-05T11:21:21.015Z,3.20
2023-01-05T11:23:51.145Z,3.23
2023-01-05T11:26:26.770Z,3.30
2023-01-05T11:29:14.348Z,2.83
2023-01-05T11:31:46.995Z,3.53
2023-01-05T11:34:26.299Z,3.63
2023-01-05T11:36:55.777Z,3.17
2023-01-05T11:39:30.132Z,3.60
2023-01-05T11:42:30.609Z,3.80
2023-01-05T11:45:01.387Z,3.40
2023-01-05T11:47:37.780Z,3.70
2023-01-05T11:50:21.452Z,3.77
2023-01-05T11:52:51.786Z,3.67
2023-01-05T11:55:35.046Z,4.20
2023-01-05T11:58:26.412Z,3.30
2023-01-05T12:01:38.039Z,3.43
2023-01-05T12:04:30.493Z,3.63
2023-01-05T12:07:15.292Z,3.67
2023-01-05T12:09:51.740Z,3.60
2023-01-05T12:12:40.764Z,3.83
2023-01-05T12:15:43.314Z,3.80
2023-01-05T12:18:28.958Z,3.23
2023-01-05T12:21:02.788Z,2.90
2023-01-05T12:24:01.030Z,2.50
2023-01-05T12:26:43.682Z,2.03
2023-01-05T12:35:50.971Z,1.60
2023-01-05T12:38:33.042Z,2.10
2023-01-05T12:41:16.338Z,1.73
2023-01-05T12:44:02.714Z,1.60
2023-01-05T12:46:43.223Z,1.60
2023-01-05T12:49:16.829Z,1.70
2023-01-05T12:51:48.779Z,2.10
2023-01-05T12:54:30.855Z,1.83
2023-01-05T12:57:02.573Z,1.63
2023-01-05T12:59:37.865Z,2.10
2023-01-05T13:02:22.760Z,1.87
2023-01-05T13:04:56.993Z,1.43
2023-01-05T13:07:29.822Z,1.80
2023-01-05T13:10:03.260Z,1.77
2023-01-05T13:12:34.382Z,1.67
2023-01-05T13:15:15.004Z,1.70
2023-01-05T13:17:48.141Z,1.57
2023-01-05T13:20:34.786Z,1.73
2023-01-05T13:23:09.108Z,1.97
2023-01-05T13:25:47.701Z,2.40
2023-01-05T13:28:20.589Z,1.73
2023-01-05T13:31:12.991Z,1.90
2023-01-05T13:34:06.098Z,1.17
2023-01-05T13:36:53.575Z,1.60
2023-01-05T13:39:44.166Z,1.73
2023-01-05T13:42:34.129Z,1.77
2023-01-05T13:45:45.106Z,1.33
2023-01-05T13:48:44.815Z,1.60
2023-01-05T13:51:34.595Z,1.50
2023-01-05T13:54:10.623Z,1.90
2023-01-05T13:56:46.621Z,1.10
2023-01-05T13:59:34.875Z,1.70
2023-01-05T14:02:29.968Z,1.37
2023-01-05T14:04:59.619Z,1.70
2023-01-05T14:07:34.391Z,1.17
2023-01-05T14:10:06.951Z,1.37
2023-01-05T14:12:48.101Z,1.70
2023-01-05T14:15:42.916Z,1.70
2023-01-05T14:18:12.213Z,1.70
2023-01-05T14:20:48.921Z,1.60
2023-01-05T14:24:03.109Z,1.33
2023-01-05T14:27:05.443Z,1.63
2023-01-05T14:30:09.305Z,2.27
2023-01-05T14:32:41.550Z,1.57
2023-01-05T14:35:22.964Z,2.40
2023-01-05T14:38:00.913Z,1.90
2023-01-05T14:40:40.997Z,1.90
2023-01-05T14:43:32.290Z,1.63
2023-01-05T14:46:06.118Z,1.63
2023-01-05T14:48:40.263Z,1.73
2023-01-05T14:51:16.780Z,1.70
2023-01-05T14:53:48.328Z,1.40
2023-01-05T14:56:20.376Z,1.70
2023-01-05T14:59:13.328Z,1.80
2023-01-05T15:01:51.251Z,1.57
2023-01-05T15:04:23.883Z,1.57
2023-01-05T15:07:11.978Z,1.67
2023-01-05T15:10:10.056Z,1.60
2023-01-05T15:13:00.639Z,2.00
2023-01-05T15:15:48.073Z,2.50
2023-01-05T15:18:47.004Z,1.50
2023-01-05T15:21:46.879Z,1.77
2023-01-05T15:24:40.290Z,1.70
2023-01-05T15:27:33.371Z,1.80
2023-01-05T15:30:23.542Z,2.13
2023-01-05T15:33:10.083Z,2.10
2023-01-05T15:35:44.597Z,1.90
2023-01-05T15:38:26.434Z,1.80
2023-01-05T15:41:01.035Z,2.00
2023-01-05T15:43:29.460Z,1.90
2023-01-05T15:46:01.106Z,2.17
2023-01-05T15:48:34.540Z,2.20
2023-01-05T15:51:03.950Z,1.83
2023-01-05T15:53:35.490Z,2.20
2023-01-05T15:56:07.791Z,2.50
2023-01-05T15:58:46.029Z,2.43
2023-01-05T16:01:16.953Z,2.10
2023-01-05T16:03:48.653Z,1.73
2023-01-05T16:06:20.770Z,1.80
2023-01-05T16:08:53.333Z,1.93
2023-01-05T16:11:27.254Z,1.63
2023-01-05T16:13:59.981Z,1.67
2023-01-05T16:16:57.431Z,2.00
2023-01-05T16:19:31.973Z,2.17
2023-01-05T16:22:04.534Z,1.90
2023-01-05T16:24:39.372Z,2.03
2023-01-05T16:27:11.651Z,2.10
2023-01-05T16:29:47.127Z,2.17
2023-01-05T16:32:33.836Z,2.17
2023-01-05T16:35:23.494Z,2.20
2023-01-05T16:38:06.771Z,2.23
2023-01-05T16:40:36.571Z,1.80
2023-01-05T16:43:08.210Z,1.97
2023-01-05T16:45:36.901Z,2.40
2023-01-05T16:48:35.258Z,1.50
2023-01-05T16:51:10.486Z,1.60
2023-01-05T16:53:44.138Z,1.63
2023-01-05T16:56:21.199Z,1.97
2023-01-05T16:58:50.855Z,1.40
2023-01-05T17:01:26.010Z,1.30
2023-01-05T17:03:54.827Z,1.20
2023-01-05T17:06:28.906Z,1.50
2023-01-05T17:09:02.384Z,1.30
2023-01-05T17:11:35.762Z,1.80
2023-01-05T17:14:05.353Z,1.57
2023-01-05T17:16:33.691Z,1.90
2023-01-05T17:19:03.138Z,2.10
2023-01-05T17:21:33.505Z,1.90
2023-01-05T17:24:03.088Z,1.93
2023-01-05T17:26:35.383Z,2.27
2023-01-05T17:29:06.973Z,2.23
2023-01-05T17:31:36.923Z,2.00
2023-01-05T17:34:06.213Z,2.20
2023-01-05T17:36:37.037Z,2.00
2023-01-05T17:39:07.071Z,2.40
2023-01-05T17:41:39.186Z,1.90
2023-01-05T17:44:07.607Z,2.10
2023-01-05T17:46:39.678Z,2.50
2023-01-05T17:49:08.386Z,1.73
2023-01-05T17:51:37.919Z,2.60
2023-01-05T17:54:06.641Z,2.70
2023-01-05T17:56:34.825Z,2.40
2023-01-05T17:59:04.854Z,2.97
2023-01-05T18:01:34.627Z,2.00
2023-01-05T18:04:03.419Z,2.13
2023-01-05T18:06:31.727Z,2.10
2023-01-05T18:09:02.310Z,3.00
2023-01-05T18:11:30.482Z,2.30
2023-01-05T18:13:59.011Z,2.53
2023-01-05T18:18:58.677Z,2.13
2023-01-05T18:21:28.261Z,2.00
2023-01-05T18:23:56.539Z,1.90
2023-01-05T18:26:26.073Z,1.67
2023-01-05T18:28:55.253Z,2.00
2023-01-05T18:31:23.380Z,2.00
2023-01-05T18:33:51.890Z,1.90
2023-01-05T18:36:20.114Z,1.47
2023-01-05T18:38:51.552Z,1.80
2023-01-05T18:41:25.580Z,1.70
2023-01-05T18:43:53.759Z,1.70
2023-01-05T18:46:22.087Z,2.00
2023-01-05T18:48:51.411Z,1.43
2023-01-05T18:51:20.116Z,1.83
2023-01-05T18:53:49.147Z,2.00
2023-01-05T18:56:18.089Z,1.83
2023-01-05T18:58:48.122Z,2.20
2023-01-05T19:01:19.225Z,2.50
2023-01-05T19:03:48.035Z,2.20
2023-01-05T19:06:19.015Z,3.00
2023-01-05T19:08:52.245Z,3.50
2023-01-05T19:11:24.606Z,3.30
2023-01-05T19:14:00.123Z,2.40
2023-01-05T19:16:31.226Z,3.17
2023-01-05T19:19:03.418Z,2.70
2023-01-05T19:21:33.651Z,2.57
2023-01-05T19:24:03.475Z,2.47
2023-01-05T19:26:33.357Z,2.50
2023-01-05T19:29:06.252Z,2.70
2023-01-05T19:31:37.698Z,2.10
2023-01-05T19:34:06.185Z,1.80
2023-01-05T19:36:35.749Z,2.50
2023-01-05T19:39:08.825Z,2.50
2023-01-05T19:41:38.198Z,2.10
2023-01-05T19:44:08.579Z,2.40
2023-01-05T19:46:36.826Z,2.20
2023-01-05T19:49:05.119Z,2.40
2023-01-05T19:51:33.659Z,2.53
2023-01-05T19:54:05.800Z,2.30
2023-01-05T19:56:35.966Z,2.23
2023-01-05T19:59:07.168Z,2.77
2023-01-05T20:01:41.656Z,2.70
2023-01-05T20:04:09.975Z,2.73
2023-01-05T20:06:40.910Z,2.50
2023-01-05T20:09:13.140Z,2.47
2023-01-05T20:11:44.207Z,2.57
2023-01-05T20:14:19.487Z,2.10
2023-01-05T20:16:51.496Z,2.10
2023-01-05T20:19:21.191Z,2.17
2023-01-05T20:21:51.140Z,2.10
2023-01-05T20:24:27.180Z,2.17
2023-01-05T20:26:57.497Z,2.50
2023-01-05T20:29:26.423Z,2.43
2023-01-05T20:31:58.139Z,2.43
2023-01-05T20:34:31.708Z,2.43
2023-01-05T20:37:03.381Z,1.90
2023-01-05T20:39:33.185Z,2.03
2023-01-05T20:42:04.866Z,2.00
2023-01-05T20:44:36.157Z,1.93
2023-01-05T20:47:06.979Z,2.03
2023-01-05T20:49:35.808Z,1.70
2023-01-05T20:52:04.258Z,3.13
2023-01-05T20:54:32.579Z,1.40
2023-01-05T20:57:01.169Z,1.60
2023-01-05T20:59:32.142Z,1.73
2023-01-05T21:02:05.664Z,1.67
2023-01-05T21:04:37.984Z,1.73
2023-01-05T21:07:08.508Z,1.60
2023-01-05T21:09:37.153Z,1.83
2023-01-05T21:12:05.613Z,1.90
2023-01-05T21:14:34.195Z,1.90
2023-01-05T21:17:02.375Z,1.93
2023-01-05T21:19:32.130Z,1.77
2023-01-05T21:22:03.785Z,1.87
2023-01-05T21:24:32.430Z,1.90
2023-01-05T21:27:00.715Z,1.90
2023-01-05T21:29:29.153Z,2.00
2023-01-05T21:31:57.405Z,1.93
2023-01-05T21:34:26.407Z,2.17
2023-01-05T21:36:54.830Z,2.13
2023-01-05T21:39:28.415Z,2.80
2023-01-05T21:42:15.006Z,2.30
2023-01-05T21:44:46.458Z,3.23
2023-01-05T21:47:18.259Z,3.73
2023-01-05T21:49:47.160Z,2.37
2023-01-05T21:52:35.275Z,2.50
2023-01-05T21:55:28.304Z,2.20
2023-01-05T21:57:58.284Z,2.40
2023-01-05T22:00:27.203Z,2.37
2023-01-05T22:02:55.478Z,2.40
2023-01-05T22:05:24.169Z,2.40
2023-01-05T22:07:53.182Z,2.43
2023-01-05T22:10:23.027Z,2.60
2023-01-05T22:12:55.866Z,2.53
2023-01-05T22:15:25.181Z,2.60
2023-01-05T22:17:53.426Z,2.17
2023-01-05T22:20:22.045Z,2.00
2023-01-05T22:22:50.336Z,2.30
2023-01-05T22:25:18.529Z,3.00
2023-01-05T22:27:48.474Z,2.20
2023-01-05T22:30:17.181Z,2.47
2023-01-05T22:32:45.413Z,2.37
2023-01-05T22:35:13.543Z,2.30
2023-01-05T22:37:42.241Z,2.03
2023-01-05T22:40:11.541Z,2.37
2023-01-05T22:42:43.270Z,1.70
2023-01-05T22:45:12.905Z,1.73
2023-01-05T22:47:42.188Z,1.93
2023-01-05T22:50:11.406Z,1.90
2023-01-05T22:52:40.155Z,1.90
2023-01-05T22:55:10.235Z,2.20
2023-01-05T22:57:38.418Z,2.10
2023-01-05T23:00:08.937Z,2.10
2023-01-05T23:02:38.647Z,2.00
2023-01-05T23:05:11.219Z,2.07
2023-01-05T23:07:39.417Z,2.40
2023-01-05T23:10:08.510Z,2.60
2023-01-05T23:12:38.154Z,2.20
2023-01-05T23:15:07.283Z,2.53
2023-01-05T23:17:39.358Z,2.60
2023-01-05T23:20:11.196Z,2.40
2023-01-05T23:22:40.260Z,2.33
2023-01-05T23:25:09.168Z,2.40
2023-01-05T23:27:38.292Z,2.80
2023-01-05T23:30:08.078Z,2.57
2023-01-05T23:32:37.153Z,2.67
2023-01-05T23:35:07.257Z,2.93
2023-01-05T23:37:37.227Z,2.90
2023-01-05T23:40:07.481Z,4.40
2023-01-05T23:42:46.392Z,2.83
2023-01-05T23:45:19.360Z,2.90
2023-01-05T23:47:48.180Z,3.50
2023-01-05T23:50:17.222Z,3.10
2023-01-05T23:52:47.202Z,3.03
2023-01-05T23:55:18.372Z,3.33
2023-01-05T23:57:49.410Z,3.27
